Time;durP1;ratioP1;P1;durP2;ratioP2;P2;SDS_P1;SDS_P2;PMS_P1;PMS_P2;Temp;Humidity;BMP_temperature;BMP_pressure;BME280_temperature;BME280_humidity;BME280_pressure;Samples;Min_cycle;Max_cycle;Signal;HPM_P1;HPM_P2
2022/09/20 00:01:13;;;;;;;7.72;1.60;;;11.10;99.90;;;;;;5095138;28;20039;-72
2022/09/20 00:03:41;;;;;;;14.32;1.83;;;11.30;99.90;;;;;;5113499;28;20039;-72
2022/09/20 00:06:13;;;;;;;8.88;2.03;;;11.20;99.90;;;;;;5125387;22;20048;-70
2022/09/20 00:08:40;;;;;;;9.27;1.45;;;11.10;99.90;;;;;;5051110;28;20491;-70
2022/09/20 00:11:14;;;;;;;10.70;1.42;;;11.40;99.90;;;;;;5034423;28;20517;-70
2022/09/20 00:13:41;;;;;;;7.47;1.65;;;11.30;99.90;;;;;;5050927;28;20088;-70
2022/09/20 00:16:09;;;;;;;11.82;1.63;;;11.20;99.90;;;;;;5051917;28;20037;-70
2022/09/20 00:18:35;;;;;;;9.40;1.60;;;11.30;99.90;;;;;;5051233;28;20044;-70
2022/09/20 00:21:02;;;;;;;7.43;1.15;;;11.20;99.90;;;;;;5052323;28;20041;-70
2022/09/20 00:23:28;;;;;;;9.68;1.60;;;11.10;99.90;;;;;;5052227;28;20095;-70
2022/09/20 00:25:56;;;;;;;8.52;1.42;;;11.20;99.90;;;;;;5051897;28;20051;-72
2022/09/20 00:28:22;;;;;;;5.72;1.50;;;11.20;99.90;;;;;;5050761;28;20383;-72
2022/09/20 00:30:48;;;;;;;8.70;1.40;;;11.10;99.90;;;;;;5050662;28;20033;-70
2022/09/20 00:33:14;;;;;;;14.13;1.73;;;11.20;99.90;;;;;;5050884;28;20056;-70
2022/09/20 00:35:43;;;;;;;6.75;1.25;;;11.10;99.90;;;;;;5051720;28;20477;-70
2022/09/20 00:38:09;;;;;;;4.20;1.10;;;11.20;99.90;;;;;;5050574;28;20088;-70
2022/09/20 00:40:35;;;;;;;9.27;1.30;;;11.10;99.90;;;;;;5050169;28;20045;-69
2022/09/20 00:43:00;;;;;;;7.13;1.13;;;11.10;99.90;;;;;;5050114;28;20132;-70
2022/09/20 00:45:30;;;;;;;8.07;1.42;;;11.20;99.90;;;;;;5033855;28;20036;-71
2022/09/20 00:48:09;;;;;;;13.35;1.50;;;11.00;99.90;;;;;;5051767;28;20040;-70
2022/09/20 00:50:38;;;;;;;10.68;1.75;;;11.00;99.90;;;;;;5033819;28;20037;-70
2022/09/20 00:53:09;;;;;;;7.88;1.67;;;10.90;99.90;;;;;;5051583;28;20033;-70
2022/09/20 00:55:40;;;;;;;10.30;1.95;;;10.90;99.90;;;;;;5051614;28;20055;-70
2022/09/20 00:58:06;;;;;;;8.68;1.33;;;10.90;99.90;;;;;;5050442;28;20037;-70
2022/09/20 01:00:32;;;;;;;8.23;1.63;;;10.90;99.90;;;;;;5051523;28;20124;-70
2022/09/20 01:03:04;;;;;;;8.55;1.38;;;11.00;99.90;;;;;;5050000;28;20179;-70
2022/09/20 01:05:31;;;;;;;5.68;1.38;;;10.80;99.90;;;;;;5051231;28;20080;-70
2022/09/20 01:07:56;;;;;;;8.95;1.40;;;10.90;99.90;;;;;;5049821;28;20083;-70
2022/09/20 01:10:22;;;;;;;6.95;1.30;;;11.00;99.90;;;;;;5051454;28;20409;-70
2022/09/20 01:12:50;;;;;;;6.78;1.35;;;10.80;99.90;;;;;;5051597;28;20029;-70
2022/09/20 01:15:17;;;;;;;9.15;1.48;;;10.80;99.90;;;;;;5049996;28;20151;-70
2022/09/20 01:17:48;;;;;;;9.45;1.40;;;10.90;99.90;;;;;;5049965;28;20047;-70
2022/09/20 01:20:22;;;;;;;10.23;1.17;;;10.90;99.90;;;;;;5049907;28;20517;-70
2022/09/20 01:23:06;;;;;;;9.43;1.70;;;11.00;99.90;;;;;;5051359;28;20522;-70
2022/09/20 01:26:00;;;;;;;6.45;1.55;;;10.90;99.90;;;;;;5051072;28;20033;-70
2022/09/20 01:28:26;;;;;;;;;;;10.90;99.90;;;;;;5051583;28;20037;-70
2022/09/20 01:31:05;;;;;;;6.30;1.48;;;10.90;99.90;;;;;;5051420;28;19923;-70
2022/09/20 01:33:34;;;;;;;7.10;1.73;;;11.10;99.90;;;;;;5049890;28;20494;-70
2022/09/20 01:36:03;;;;;;;11.93;1.33;;;11.10;99.90;;;;;;5049612;28;20072;-70
2022/09/20 01:38:35;;;;;;;12.02;2.17;;;11.10;99.90;;;;;;5049884;28;20048;-70
2022/09/20 01:41:08;;;;;;;8.65;1.52;;;11.20;99.90;;;;;;5051090;28;20049;-70
2022/09/20 01:43:50;;;;;;;3.97;1.35;;;11.20;99.90;;;;;;5050057;28;20045;-70
2022/09/20 01:46:32;;;;;;;9.30;1.42;;;11.30;99.90;;;;;;5050041;28;20508;-70
2022/09/20 01:49:32;;;;;;;5.25;0.98;;;11.30;99.90;;;;;;5051206;28;20048;-70
2022/09/20 01:52:23;;;;;;;8.30;1.40;;;11.40;99.90;;;;;;5049893;28;20040;-70
2022/09/20 01:55:27;;;;;;;17.70;1.83;;;11.50;99.90;;;;;;5050798;28;20049;-70
2022/09/20 01:58:12;;;;;;;8.30;1.15;;;11.40;99.90;;;;;;5051306;28;20041;-70
2022/09/20 02:00:50;;;;;;;11.25;1.38;;;11.60;99.90;;;;;;5049839;28;20537;-70
2022/09/20 02:04:05;;;;;;;10.43;1.67;;;11.50;99.90;;;;;;5051011;28;20099;-70
2022/09/20 02:06:59;;;;;;;8.30;2.00;;;11.60;99.90;;;;;;4972706;28;20093;-70
2022/09/20 02:10:03;;;;;;;5.85;1.30;;;11.50;99.90;;;;;;5049584;28;20499;-70
2022/09/20 02:12:55;;;;;;;3.63;0.82;;;11.60;99.90;;;;;;5049713;28;20486;-70
2022/09/20 02:15:35;;;;;;;5.95;0.95;;;11.80;99.90;;;;;;5051183;28;20087;-70
2022/09/20 02:18:30;;;;;;;7.32;1.73;;;11.70;99.90;;;;;;5053418;28;20087;-70
2022/09/20 02:21:02;;;;;;;6.18;1.00;;;11.90;99.90;;;;;;5053321;28;20372;-70
2022/09/20 02:23:58;;;;;;;9.00;1.25;;;11.70;99.90;;;;;;5053099;28;20072;-70
2022/09/20 02:26:48;;;;;;;8.95;1.73;;;11.80;99.90;;;;;;5054287;28;20067;-70
2022/09/20 02:29:39;;;;;;;5.75;0.98;;;11.80;99.90;;;;;;5053004;28;20045;-70
2022/09/20 02:32:18;;;;;;;3.95;0.90;;;11.90;99.90;;;;;;5052899;28;20039;-70
2022/09/20 02:35:09;;;;;;;7.68;1.30;;;12.00;99.90;;;;;;5052823;28;20051;-70
2022/09/20 02:37:44;;;;;;;7.15;1.48;;;11.80;99.90;;;;;;5054245;28;20044;-70
2022/09/20 02:40:24;;;;;;;8.60;1.58;;;11.90;99.90;;;;;;5052902;28;20044;-70
2022/09/20 02:43:07;;;;;;;4.78;1.13;;;11.90;99.90;;;;;;5052999;28;20317;-70
2022/09/20 02:45:52;;;;;;;6.88;1.05;;;11.90;99.90;;;;;;5053695;28;20048;-70
2022/09/20 02:48:23;;;;;;;4.00;0.90;;;11.80;99.90;;;;;;5052563;28;20120;-70
2022/09/20 02:51:09;;;;;;;8.25;1.08;;;11.80;99.90;;;;;;5052847;28;20032;-70
2022/09/20 02:54:02;;;;;;;9.65;0.95;;;11.90;99.90;;;;;;5052766;28;20037;-70
2022/09/20 02:56:56;;;;;;;6.10;1.13;;;11.70;99.90;;;;;;5053850;28;20044;-70
2022/09/20 02:59:31;;;;;;;3.75;1.10;;;11.80;99.90;;;;;;5052570;28;20131;-70
2022/09/20 03:02:27;;;;;;;5.80;1.08;;;11.70;99.90;;;;;;5052472;28;20044;-70
2022/09/20 03:05:18;;;;;;;3.50;1.30;;;11.80;99.90;;;;;;5035350;28;20045;-70
2022/09/20 03:07:56;;;;;;;7.05;1.58;;;;;;;;;;5053409;28;20046;-69
2022/09/20 03:10:37;;;;;;;10.25;1.45;;;11.70;99.90;;;;;;5052313;28;20719;-70
2022/09/20 03:13:30;;;;;;;3.05;1.00;;;11.50;99.90;;;;;;5052425;28;20124;-70
2022/09/20 03:16:19;;;;;;;6.28;1.23;;;11.80;99.90;;;;;;5035571;28;20041;-70
2022/09/20 03:19:16;;;;;;;4.47;1.30;;;11.60;99.90;;;;;;5052268;28;20240;-69
2022/09/20 03:21:50;;;;;;;5.18;1.02;;;11.70;99.90;;;;;;5052361;28;20498;-72
2022/09/20 03:24:15;;;;;;;7.35;1.23;;;11.60;99.90;;;;;;5051690;28;20048;-70
2022/09/20 03:26:57;;;;;;;3.63;0.73;;;11.60;99.90;;;;;;5052951;28;20040;-70
2022/09/20 03:29:51;;;;;;;7.93;0.95;;;11.70;99.90;;;;;;5051744;28;20068;-69
2022/09/20 03:32:35;;;;;;;3.80;0.90;;;11.60;99.90;;;;;;5052110;28;20076;-70
2022/09/20 03:35:21;;;;;;;4.43;1.20;;;11.60;99.90;;;;;;5051495;28;20041;-70
2022/09/20 03:37:56;;;;;;;3.17;1.10;;;;;;;;;;5052851;28;20487;-70
2022/09/20 03:40:41;;;;;;;6.10;0.73;;;11.60;99.90;;;;;;5051612;28;20040;-70
2022/09/20 03:43:48;;;;;;;8.65;1.00;;;11.60;99.90;;;;;;5053023;28;20055;-70
2022/09/20 03:46:21;;;;;;;6.40;1.00;;;11.70;99.90;;;;;;5051625;28;20051;-70
2022/09/20 03:49:31;;;;;;;5.45;0.82;;;11.70;99.90;;;;;;5052803;28;20534;-69
2022/09/20 03:52:14;;;;;;;4.47;1.15;;;;;;;;;;5051442;28;20045;-70
2022/09/20 03:55:04;;;;;;;2.58;0.88;;;11.60;99.90;;;;;;5051065;28;20041;-70
2022/09/20 03:57:55;;;;;;;9.73;1.25;;;11.60;99.90;;;;;;5034721;28;20044;-70
2022/09/20 04:00:32;;;;;;;1.70;0.85;;;11.70;99.90;;;;;;5051383;28;20048;-70
2022/09/20 04:03:36;;;;;;;4.28;0.88;;;11.60;99.90;;;;;;5052711;28;20048;-70
2022/09/20 04:06:35;;;;;;;4.22;1.20;;;11.60;99.90;;;;;;5050863;28;20040;-70
2022/09/20 04:09:32;;;;;;;5.65;1.02;;;11.60;99.90;;;;;;5020666;28;20057;-70
2022/09/20 04:12:01;;;;;;;8.75;1.00;;;11.70;99.90;;;;;;5052567;28;20063;-70
2022/09/20 04:14:47;;;;;;;7.07;1.10;;;11.60;99.90;;;;;;5050704;28;20632;-70
2022/09/20 04:17:37;;;;;;;6.60;1.02;;;11.60;99.90;;;;;;5052239;28;20223;-70
2022/09/20 04:20:17;;;;;;;7.32;1.75;;;11.60;99.90;;;;;;5050910;28;20120;-70
2022/09/20 04:22:45;;;;;;;3.45;1.25;;;11.60;99.90;;;;;;5034561;28;20040;-70
2022/09/20 04:25:17;;;;;;;4.45;1.27;;;11.70;99.90;;;;;;5051956;28;20073;-70
2022/09/20 04:28:08;;;;;;;9.70;1.65;;;11.60;99.90;;;;;;5034249;28;20037;-70
2022/09/20 04:30:42;;;;;;;6.70;1.27;;;11.60;99.90;;;;;;5052062;28;20047;-70
2022/09/20 04:33:22;;;;;;;5.55;1.00;;;11.70;99.90;;;;;;5034148;28;20044;-70
2022/09/20 04:36:27;;;;;;;7.25;1.20;;;11.50;99.90;;;;;;5050272;28;20406;-70
2022/09/20 04:39:13;;;;;;;6.95;1.08;;;11.40;99.90;;;;;;5049873;28;20037;-70
2022/09/20 04:42:16;;;;;;;2.67;0.70;;;11.60;99.90;;;;;;5050686;28;20106;-70
2022/09/20 04:45:02;;;;;;;3.75;1.10;;;11.60;99.90;;;;;;5033569;28;20037;-70
2022/09/20 04:47:54;;;;;;;3.22;0.82;;;11.50;99.90;;;;;;5050474;28;20049;-70
2022/09/20 04:50:47;;;;;;;5.13;0.77;;;;;;;;;;5051685;28;20052;-70
2022/09/20 04:53:39;;;;;;;3.80;1.13;;;11.60;99.90;;;;;;5028483;28;20049;-70
2022/09/20 04:56:20;;;;;;;4.32;0.90;;;11.50;99.90;;;;;;5050065;28;20119;-70
2022/09/20 04:58:48;;;;;;;5.75;1.20;;;11.50;99.90;;;;;;5051666;28;20037;-70
2022/09/20 05:01:34;;;;;;;7.10;1.27;;;11.60;99.90;;;;;;5033512;28;20128;-70
2022/09/20 05:04:08;;;;;;;7.63;1.60;;;11.60;99.90;;;;;;5050003;28;20052;-70
2022/09/20 05:07:09;;;;;;;5.30;1.10;;;11.60;99.90;;;;;;5051610;28;20095;-72
2022/09/20 05:09:37;;;;;;;7.00;1.52;;;11.70;99.90;;;;;;5051244;28;20048;-70
2022/09/20 05:12:18;;;;;;;4.97;1.30;;;11.60;99.90;;;;;;5050144;28;20072;-70
2022/09/20 05:15:06;;;;;;;3.80;1.17;;;11.70;99.90;;;;;;5051151;28;20037;-70
2022/09/20 05:17:43;;;;;;;5.70;1.30;;;11.60;99.90;;;;;;5049959;28;20045;-71
2022/09/20 05:20:36;;;;;;;7.53;1.77;;;11.50;99.90;;;;;;5050028;28;20131;-70
2022/09/20 05:23:20;;;;;;;4.65;1.40;;;11.60;99.90;;;;;;5051495;28;20064;-70
2022/09/20 05:25:46;;;;;;;4.88;1.40;;;11.60;99.90;;;;;;5049784;28;20151;-70
2022/09/20 05:28:14;;;;;;;6.78;1.40;;;11.50;99.90;;;;;;5050465;28;20132;-72
2022/09/20 05:31:10;;;;;;;6.10;1.33;;;11.40;99.90;;;;;;5034391;28;20033;-70
2022/09/20 05:33:58;;;;;;;7.40;1.55;;;11.20;99.90;;;;;;5050033;28;20037;-70
2022/09/20 05:36:44;;;;;;;8.88;1.50;;;11.40;99.90;;;;;;5051028;28;20040;-70
2022/09/20 05:39:21;;;;;;;11.70;1.90;;;;;;;;;;5051076;28;20499;-70
2022/09/20 05:42:22;;;;;;;8.77;1.77;;;11.40;99.90;;;;;;5049878;28;20047;-70
2022/09/20 05:45:20;;;;;;;10.02;1.55;;;11.40;99.90;;;;;;5050158;28;20045;-70
2022/09/20 05:48:09;;;;;;;10.32;1.55;;;11.40;99.90;;;;;;5030975;28;20137;-69
2022/09/20 05:50:40;;;;;;;9.30;1.50;;;11.20;99.90;;;;;;5030829;28;20534;-70
2022/09/20 05:53:28;;;;;;;7.03;1.77;;;11.30;99.90;;;;;;5032624;28;20041;-70
2022/09/20 05:56:04;;;;;;;7.15;1.58;;;11.20;99.90;;;;;;5016468;28;20375;-70
2022/09/20 05:58:42;;;;;;;9.52;1.45;;;11.20;99.90;;;;;;5033399;28;20087;-69
2022/09/20 06:01:12;;;;;;;10.05;1.50;;;11.30;99.90;;;;;;5051648;28;20088;-70
2022/09/20 06:03:56;;;;;;;11.50;1.50;;;11.40;99.90;;;;;;5033658;28;20071;-69
2022/09/20 06:06:30;;;;;;;9.50;1.42;;;11.30;99.90;;;;;;5051537;28;20049;-69
2022/09/20 06:09:14;;;;;;;;;;;11.30;99.90;;;;;;5066679;22;20048;-74
2022/09/20 06:11:56;;;;;;;4.00;1.17;;;11.40;99.90;;;;;;5026965;28;19917;-73
2022/09/20 06:14:42;;;;;;;6.68;1.50;;;;;;;;;;5041839;28;20037;-73
2022/09/20 06:17:29;;;;;;;7.75;1.63;;;11.30;99.90;;;;;;5045678;28;20482;-72
2022/09/20 06:20:16;;;;;;;4.60;1.48;;;11.20;99.90;;;;;;5038392;28;20090;-73
2022/09/20 06:22:45;;;;;;;4.75;1.30;;;11.40;99.90;;;;;;5053015;28;20044;-73
2022/09/20 06:25:33;;;;;;;9.82;1.95;;;11.30;99.90;;;;;;5054569;28;20040;-73
2022/09/20 06:28:05;;;;;;;7.80;1.77;;;11.50;99.90;;;;;;5055044;28;20072;-73
2022/09/20 06:30:35;;;;;;;7.07;1.50;;;11.40;99.90;;;;;;5054981;28;20124;-73
2022/09/20 06:33:17;;;;;;;7.72;1.35;;;11.60;99.90;;;;;;5052146;28;20514;-73
2022/09/20 06:41:59;;;;;;;5.97;1.20;;;12.20;99.90;;;;;;5031863;28;20084;-73
2022/09/20 06:44:24;;;;;;;10.00;1.42;;;12.30;99.90;;;;;;5032253;28;20038;-73
2022/09/20 06:46:53;;;;;;;10.00;1.73;;;12.40;99.90;;;;;;5013787;28;20059;-73
2022/09/20 06:49:19;;;;;;;7.55;1.45;;;12.30;99.90;;;;;;5048514;28;20046;-73
2022/09/20 06:51:46;;;;;;;7.18;1.58;;;12.50;99.90;;;;;;5030570;28;20613;-72
2022/09/20 06:54:16;;;;;;;8.93;1.27;;;12.80;99.90;;;;;;5032666;28;20038;-73
2022/09/20 06:56:43;;;;;;;12.00;1.63;;;12.70;99.90;;;;;;5032550;28;20064;-73
2022/09/20 06:59:11;;;;;;;9.77;1.75;;;12.90;99.90;;;;;;5031934;28;20037;-73
2022/09/20 07:01:37;;;;;;;6.70;1.25;;;13.00;99.90;;;;;;5026456;28;20053;-73
2022/09/20 07:04:05;;;;;;;6.80;1.40;;;13.00;99.90;;;;;;5034373;28;20036;-73
2022/09/20 07:06:31;;;;;;;6.68;1.27;;;13.20;99.90;;;;;;5022436;28;20071;-70
2022/09/20 07:08:56;;;;;;;6.03;1.10;;;13.20;99.90;;;;;;5039952;28;20040;-74
2022/09/20 07:11:22;;;;;;;6.47;2.10;;;13.10;99.90;;;;;;5040411;28;20056;-73
2022/09/20 07:13:53;;;;;;;6.70;1.65;;;13.00;99.90;;;;;;5052334;28;20040;-75
2022/09/20 07:16:19;;;;;;;10.65;1.55;;;13.20;99.90;;;;;;5032395;28;20040;-73
2022/09/20 07:18:46;;;;;;;7.30;1.45;;;13.20;99.90;;;;;;5015492;28;20091;-75
2022/09/20 07:21:13;;;;;;;10.52;1.60;;;13.20;99.90;;;;;;5015944;28;20048;-73
2022/09/20 07:23:39;;;;;;;8.23;1.27;;;13.30;99.90;;;;;;5034347;28;20144;-73
2022/09/20 07:26:05;;;;;;;6.70;1.60;;;13.20;99.90;;;;;;5032129;28;20132;-73
2022/09/20 07:28:33;;;;;;;10.43;2.65;;;13.10;99.90;;;;;;5033506;28;20037;-73
2022/09/20 07:30:59;;;;;;;7.15;1.83;;;13.50;99.90;;;;;;5032185;28;20083;-73
2022/09/20 07:33:25;;;;;;;6.13;1.10;;;13.40;99.90;;;;;;5032188;28;20037;-73
2022/09/20 07:35:53;;;;;;;7.05;1.40;;;13.50;99.90;;;;;;5033095;28;20041;-73
2022/09/20 07:38:19;;;;;;;10.82;1.80;;;13.60;99.90;;;;;;5033567;28;20495;-73
2022/09/20 07:40:45;;;;;;;4.72;1.08;;;13.40;99.90;;;;;;5033059;28;20523;-73
2022/09/20 07:43:11;;;;;;;8.10;1.55;;;13.40;99.90;;;;;;5033326;28;20045;-75
2022/09/20 07:45:40;;;;;;;16.73;2.00;;;13.50;99.90;;;;;;5032923;28;20038;-74
2022/09/20 07:48:08;;;;;;;10.93;1.45;;;13.30;99.90;;;;;;5033189;28;20068;-73
2022/09/20 07:50:34;;;;;;;8.13;2.00;;;13.30;99.90;;;;;;5031663;28;20079;-73
2022/09/20 07:52:59;;;;;;;5.97;1.20;;;13.50;99.90;;;;;;5033337;28;20064;-73
2022/09/20 07:55:25;;;;;;;10.63;2.47;;;13.40;99.90;;;;;;5032861;28;20034;-73
2022/09/20 07:57:51;;;;;;;5.20;1.98;;;13.60;99.90;;;;;;5033104;28;20060;-73
2022/09/20 08:00:17;;;;;;;6.00;1.80;;;13.70;99.90;;;;;;5031555;28;20033;-73
2022/09/20 08:02:44;;;;;;;10.85;1.70;;;13.70;99.90;;;;;;5031903;28;20080;-73
2022/09/20 08:05:10;;;;;;;4.05;1.10;;;13.90;99.90;;;;;;5031160;28;20048;-73
2022/09/20 08:07:37;;;;;;;6.47;1.13;;;14.10;99.90;;;;;;5031972;28;20128;-73
2022/09/20 08:10:03;;;;;;;7.45;1.40;;;14.00;99.90;;;;;;5032496;28;20045;-74
2022/09/20 08:12:31;;;;;;;6.40;1.20;;;;;;;;;;5030989;28;20033;-73
2022/09/20 08:15:00;;;;;;;14.07;1.35;;;;;;;;;;5031544;28;20054;-73
2022/09/20 08:17:26;;;;;;;7.90;1.23;;;;;;;;;;5032444;28;20096;-73
2022/09/20 08:19:52;;;;;;;3.63;1.05;;;;;;;;;;5031494;28;20099;-73
2022/09/20 08:22:19;;;;;;;8.50;1.30;;;;;;;;;;5031239;28;20495;-73
2022/09/20 08:24:45;;;;;;;8.70;1.00;;;14.90;99.90;;;;;;5030977;28;20045;-73
2022/09/20 08:27:12;;;;;;;14.30;1.38;;;;;;;;;;5014647;28;20041;-73
2022/09/20 08:29:39;;;;;;;4.28;1.33;;;;;;;;;;5032290;28;20111;-74
2022/09/20 08:32:04;;;;;;;9.55;2.20;;;15.60;99.90;;;;;;5032245;28;20048;-73
2022/09/20 08:34:30;;;;;;;3.92;1.02;;;15.70;99.90;;;;;;5030764;28;20037;-73
2022/09/20 08:36:56;;;;;;;3.45;0.90;;;;;;;;;;5032298;28;20039;-73
2022/09/20 08:39:23;;;;;;;7.15;0.90;;;15.40;99.90;;;;;;5031041;28;20072;-73
2022/09/20 08:42:23;;;;;;;9.77;0.98;;;15.20;99.90;;;;;;5030953;28;20056;-74
2022/09/20 08:44:56;;;;;;;5.90;1.05;;;15.10;99.90;;;;;;5030508;28;20084;-73
2022/09/20 08:47:26;;;;;;;7.15;1.08;;;14.60;99.90;;;;;;5030938;28;20083;-73
2022/09/20 08:49:53;;;;;;;8.20;1.77;;;14.60;99.90;;;;;;5030698;28;20120;-73
2022/09/20 08:52:27;;;;;;;11.63;1.98;;;14.30;99.90;;;;;;5030785;28;20107;-73
2022/09/20 08:54:56;;;;;;;4.82;0.95;;;14.60;99.90;;;;;;5014133;28;20556;-73
2022/09/20 08:57:22;;;;;;;6.20;1.48;;;;;;;;;;5032111;28;20052;-72
2022/09/20 08:59:49;;;;;;;5.97;0.65;;;14.60;99.90;;;;;;5031884;28;20116;-72
2022/09/20 09:02:18;;;;;;;5.03;0.90;;;14.60;99.90;;;;;;5030624;28;20045;-72
2022/09/20 09:04:44;;;;;;;5.68;1.15;;;;;;;;;;5030223;28;20044;-74
2022/09/20 09:07:14;;;;;;;6.50;1.50;;;15.00;99.90;;;;;;5032256;28;20041;-73
2022/09/20 09:09:46;;;;;;;4.72;1.65;;;15.00;99.90;;;;;;5030029;28;20064;-73
2022/09/20 09:12:28;;;;;;;4.82;1.05;;;15.20;99.90;;;;;;5030692;28;20037;-72
2022/09/20 09:15:02;;;;;;;3.38;0.98;;;15.60;99.90;;;;;;5007104;28;20044;-71
2022/09/20 09:17:29;;;;;;;3.97;1.23;;;16.00;99.90;;;;;;5030066;28;20042;-72
2022/09/20 09:19:59;;;;;;;6.07;1.15;;;15.80;99.90;;;;;;5046119;28;20499;-71
2022/09/20 09:22:36;;;;;;;5.70;1.73;;;15.70;99.90;;;;;;5045306;28;20053;-72
2022/09/20 09:25:23;;;;;;;2.85;1.08;;;15.40;99.90;;;;;;5031790;28;20042;-72
2022/09/20 09:28:11;;;;;;;2.97;1.00;;;15.30;99.90;;;;;;5037546;28;20037;-71
2022/09/20 09:30:48;;;;;;;6.22;1.20;;;15.10;99.90;;;;;;5037564;28;20133;-71
2022/09/20 09:33:29;;;;;;;7.32;1.45;;;15.30;99.90;;;;;;5036315;28;20052;-73
2022/09/20 09:36:04;;;;;;;3.85;1.25;;;15.20;99.90;;;;;;5030321;28;20033;-74
2022/09/20 09:38:33;;;;;;;4.25;1.30;;;15.50;99.90;;;;;;5035573;28;20048;-72
2022/09/20 09:41:04;;;;;;;6.53;1.10;;;15.70;99.90;;;;;;5035173;28;20037;-73
2022/09/20 09:43:34;;;;;;;3.60;0.90;;;15.80;99.90;;;;;;5035269;28;20567;-73
2022/09/20 09:46:23;;;;;;;6.45;1.00;;;15.90;99.90;;;;;;5033617;28;20132;-73
2022/09/20 09:49:15;;;;;;;4.93;1.10;;;16.40;99.90;;;;;;5035879;28;20136;-74
2022/09/20 09:51:54;;;;;;;9.65;1.42;;;16.20;99.90;;;;;;5035157;28;20036;-73
2022/09/20 09:54:21;;;;;;;9.63;1.80;;;16.60;99.90;;;;;;5018849;28;20038;-73
2022/09/20 09:56:59;;;;;;;4.72;1.00;;;16.70;99.90;;;;;;5037127;28;20041;-72
2022/09/20 09:59:41;;;;;;;8.65;1.75;;;16.80;99.90;;;;;;5035904;28;20124;-72
2022/09/20 10:02:22;;;;;;;4.07;0.90;;;17.20;99.90;;;;;;5037653;28;20091;-72
2022/09/20 10:04:48;;;;;;;6.03;1.15;;;;;;;;;;5035253;28;20052;-73
2022/09/20 10:07:42;;;;;;;2.33;0.60;;;17.30;99.90;;;;;;5036714;28;20132;-73
2022/09/20 10:10:25;;;;;;;4.53;1.10;;;16.70;99.90;;;;;;5036005;28;20041;-73
2022/09/20 10:12:58;;;;;;;;;;;16.80;99.90;;;;;;5037566;28;20509;-73
2022/09/20 10:15:28;;;;;;;7.03;1.27;;;15.90;99.90;;;;;;5018964;28;19923;-76
2022/09/20 10:18:23;;;;;;;2.35;0.60;;;16.20;99.90;;;;;;5035408;28;20159;-72
2022/09/20 10:21:12;;;;;;;3.17;0.80;;;15.90;99.90;;;;;;5036409;28;20041;-74
2022/09/20 10:24:15;;;;;;;5.25;0.77;;;16.30;99.90;;;;;;5036762;28;20048;-72
2022/09/20 10:26:42;;;;;;;6.43;1.30;;;;;;;;;;5020262;28;20037;-74
2022/09/20 10:29:45;;;;;;;3.92;1.20;;;16.10;99.90;;;;;;5036029;28;20473;-74
2022/09/20 10:32:38;;;;;;;5.10;1.67;;;16.30;99.90;;;;;;4956547;29;20070;-75
2022/09/20 10:35:21;;;;;;;3.28;0.90;;;16.30;99.90;;;;;;5030979;28;20048;-72
2022/09/20 10:38:23;;;;;;;6.30;1.17;;;16.50;99.90;;;;;;5028219;28;20037;-73
2022/09/20 10:43:56;;;;;;;10.65;1.38;;;16.40;99.90;;;;;;5030716;28;20594;-73
2022/09/20 10:46:30;;;;;;;6.40;0.98;;;16.00;99.90;;;;;;5019761;28;20044;-74
2022/09/20 10:49:22;;;;;;;9.43;1.35;;;16.00;99.90;;;;;;5037153;28;20385;-73
2022/09/20 10:52:03;;;;;;;9.25;1.23;;;15.70;99.90;;;;;;5030376;28;20495;-72
2022/09/20 10:54:53;;;;;;;6.60;1.42;;;15.40;99.90;;;;;;5041820;28;20570;-74
2022/09/20 10:58:05;;;;;;;3.97;1.02;;;16.10;99.90;;;;;;5027637;28;20511;-73
2022/09/20 11:00:46;;;;;;;5.93;0.93;;;16.70;99.90;;;;;;5033858;28;20464;-75
2022/09/20 11:03:26;;;;;;;6.88;1.23;;;17.00;99.90;;;;;;5035658;28;20040;-74
2022/09/20 11:06:09;;;;;;;6.15;1.10;;;17.10;99.90;;;;;;5034331;28;20037;-75
2022/09/20 11:08:37;;;;;;;5.80;1.10;;;16.70;99.90;;;;;;5039866;28;20491;-73
2022/09/20 11:11:22;;;;;;;6.38;1.10;;;16.40;99.90;;;;;;5043969;28;20068;-73
2022/09/20 11:14:00;;;;;;;3.50;1.08;;;16.50;99.90;;;;;;5037189;28;20867;-74
2022/09/20 11:16:59;;;;;;;2.70;0.80;;;16.70;99.10;;;;;;5040932;28;20101;-74
2022/09/20 11:19:48;;;;;;;2.63;0.90;;;16.50;99.40;;;;;;5026882;28;20041;-76
2022/09/20 11:22:22;;;;;;;4.20;1.25;;;16.60;99.90;;;;;;5008081;28;20034;-73
2022/09/20 11:24:55;;;;;;;2.92;0.90;;;16.30;99.90;;;;;;5030661;28;20041;-74
2022/09/20 11:27:32;;;;;;;9.95;3.28;;;16.00;99.90;;;;;;5030763;28;20535;-74
2022/09/20 11:30:12;;;;;;;6.20;1.60;;;16.10;99.90;;;;;;5013442;28;20052;-74
2022/09/20 11:32:45;;;;;;;5.65;0.85;;;16.70;99.90;;;;;;5011377;28;20042;-74
2022/09/20 11:35:10;;;;;;;5.43;0.80;;;17.00;99.90;;;;;;5028247;28;20447;-73
2022/09/20 11:38:17;;;;;;;5.47;1.10;;;16.90;99.60;;;;;;5016525;28;20049;-74
2022/09/20 11:40:51;;;;;;;5.75;0.80;;;17.10;99.50;;;;;;4998281;28;20525;-74
2022/09/20 11:43:18;;;;;;;3.13;1.27;;;17.40;99.90;;;;;;5032756;28;20503;-73
2022/09/20 11:45:46;;;;;;;3.70;0.75;;;17.10;99.20;;;;;;5031065;28;20103;-74
2022/09/20 11:48:19;;;;;;;4.45;1.10;;;16.70;99.40;;;;;;5032783;28;20419;-74
2022/09/20 11:50:55;;;;;;;3.42;0.80;;;16.80;99.50;;;;;;5032516;28;20113;-73
2022/09/20 11:53:41;;;;;;;5.07;1.55;;;17.40;98.80;;;;;;5031163;28;20171;-74
2022/09/20 11:56:16;;;;;;;7.53;2.35;;;17.60;99.30;;;;;;5047317;28;20041;-74
2022/09/20 11:58:47;;;;;;;5.47;1.17;;;17.80;99.10;;;;;;5031035;28;20033;-72
2022/09/20 12:01:14;;;;;;;2.28;0.40;;;17.50;98.10;;;;;;5032043;28;20517;-73
2022/09/20 12:03:42;;;;;;;5.05;0.73;;;16.80;98.40;;;;;;5030579;28;20495;-73
2022/09/20 12:06:24;;;;;;;2.15;0.60;;;16.60;98.50;;;;;;5032905;28;20041;-73
2022/09/20 12:08:51;;;;;;;2.85;0.55;;;17.10;98.60;;;;;;5047028;28;20115;-73
2022/09/20 12:11:28;;;;;;;2.40;0.47;;;17.40;99.20;;;;;;5089045;22;20056;-71
2022/09/20 12:14:21;;;;;;;4.15;2.20;;;17.60;96.80;;;;;;5068674;28;20037;-71
2022/09/20 12:16:48;;;;;;;4.97;1.40;;;17.90;98.50;;;;;;5063793;28;20044;-71
2022/09/20 12:19:35;;;;;;;7.70;0.93;;;17.90;99.90;;;;;;5070566;28;20139;-71
2022/09/20 12:22:02;;;;;;;6.05;1.00;;;;;;;;;;5069883;28;20524;-73
2022/09/20 12:24:38;;;;;;;5.90;1.27;;;17.20;99.90;;;;;;5071370;28;20045;-72
2022/09/20 12:27:22;;;;;;;10.40;1.33;;;17.00;99.90;;;;;;5043292;28;20041;-73
2022/09/20 12:30:02;;;;;;;13.88;3.85;;;16.70;99.90;;;;;;5070507;28;20059;-73
2022/09/20 12:32:44;;;;;;;8.52;1.40;;;16.70;99.90;;;;;;5069780;28;20505;-72
2022/09/20 12:35:50;;;;;;;4.10;1.05;;;16.70;99.90;;;;;;5060627;28;20048;-73
2022/09/20 12:38:16;;;;;;;4.93;1.10;;;17.20;99.90;;;;;;5041132;28;20044;-73
2022/09/20 12:40:57;;;;;;;3.72;1.08;;;17.40;99.90;;;;;;5051183;28;20041;-73
2022/09/20 12:43:23;;;;;;;7.43;1.00;;;17.30;99.90;;;;;;5054355;28;20101;-73
2022/09/20 12:45:54;;;;;;;8.02;0.90;;;17.60;99.90;;;;;;5051696;28;20123;-73
2022/09/20 12:48:20;;;;;;;8.77;2.05;;;17.50;99.90;;;;;;5051930;28;20045;-73
2022/09/20 12:54:02;;;;;;;3.83;0.80;;;17.70;99.90;;;;;;5060133;28;20075;-72
2022/09/20 12:56:28;;;;;;;5.97;0.80;;;17.80;99.90;;;;;;5058045;28;20119;-72
2022/09/20 12:58:55;;;;;;;4.47;0.90;;;18.00;99.90;;;;;;5061102;28;20115;-73
2022/09/20 13:01:21;;;;;;;9.55;1.98;;;18.10;99.90;;;;;;5067261;28;20048;-73
2022/09/20 13:03:48;;;;;;;3.85;1.50;;;18.20;99.90;;;;;;5070632;28;20123;-72
2022/09/20 13:06:15;;;;;;;5.85;1.10;;;17.70;99.90;;;;;;5053456;28;20119;-72
2022/09/20 13:08:56;;;;;;;5.57;1.08;;;17.40;99.70;;;;;;5070426;28;20051;-73
2022/09/20 13:11:43;;;;;;;2.05;1.00;;;17.20;99.90;;;;;;5071381;28;20044;-73
2022/09/20 13:14:29;;;;;;;7.32;1.00;;;16.80;99.90;;;;;;5070511;28;20060;-72
2022/09/20 13:17:20;;;;;;;5.90;2.50;;;16.40;98.20;;;;;;5070351;28;20048;-73
2022/09/20 13:19:46;;;;;;;7.35;2.13;;;16.50;99.10;;;;;;5071886;28;20494;-72
2022/09/20 13:22:30;;;;;;;3.78;1.02;;;16.40;98.30;;;;;;5071829;28;20456;-72
2022/09/20 13:25:01;;;;;;;5.07;1.00;;;17.00;99.00;;;;;;5065778;28;20397;-72
2022/09/20 13:27:33;;;;;;;4.50;1.58;;;17.00;98.40;;;;;;5049962;28;20398;-72
2022/09/20 13:30:18;;;;;;;4.90;1.42;;;17.20;97.50;;;;;;5050889;28;20108;-73
2022/09/20 13:32:44;;;;;;;4.47;0.85;;;17.30;97.90;;;;;;5052663;28;20044;-72
2022/09/20 13:35:12;;;;;;;3.85;0.63;;;17.20;96.80;;;;;;5051244;28;20033;-72
2022/09/20 13:38:04;;;;;;;2.50;0.70;;;17.40;97.80;;;;;;5051158;28;20442;-72
2022/09/20 13:40:41;;;;;;;3.75;0.60;;;17.50;96.40;;;;;;5025443;28;20048;-72
2022/09/20 13:43:35;;;;;;;3.05;0.52;;;17.50;97.90;;;;;;5054006;28;20033;-72
2022/09/20 13:46:07;;;;;;;6.38;1.23;;;17.60;98.20;;;;;;5076370;28;20032;-73
2022/09/20 13:48:33;;;;;;;5.30;1.65;;;;;;;;;;5076916;28;20050;-72
2022/09/20 13:50:59;;;;;;;3.67;1.20;;;17.20;99.80;;;;;;5067882;28;20033;-72
2022/09/20 13:53:26;;;;;;;7.10;0.60;;;17.00;99.30;;;;;;5065455;28;20055;-72
2022/09/20 13:55:55;;;;;;;4.20;0.73;;;16.80;99.30;;;;;;5069693;28;20040;-73
2022/09/20 13:58:24;;;;;;;4.35;0.75;;;17.40;99.20;;;;;;5036720;28;20040;-72